createdAt,value
2022-08-20T00:00:48.682Z,98831.44
2022-08-20T00:03:18.807Z,98822.72
2022-08-20T00:05:49.427Z,98823.56
2022-08-20T00:08:17.604Z,98815.38
2022-08-20T00:10:47.672Z,98809.63
2022-08-20T00:13:23.704Z,98815.22
2022-08-20T00:15:50.701Z,98819.94
2022-08-20T00:18:17.311Z,98821.00
2022-08-20T00:20:46.856Z,98816.72
2022-08-20T00:23:13.983Z,98815.47
2022-08-20T00:25:41.342Z,98822.66
2022-08-20T00:28:08.089Z,98820.53
2022-08-20T00:30:35.806Z,98822.75
2022-08-20T00:33:07.200Z,98827.56
2022-08-20T00:35:37.021Z,98822.59
2022-08-20T00:38:04.810Z,98815.38
2022-08-20T00:40:35.310Z,98823.41
2022-08-20T00:43:05.774Z,98820.25
2022-08-20T00:45:34.859Z,98823.34
2022-08-20T00:48:01.675Z,98818.94
2022-08-20T00:50:36.218Z,98817.03
2022-08-20T00:53:06.251Z,98822.59
2022-08-20T00:55:33.626Z,98824.50
2022-08-20T00:58:09.613Z,98823.81
2022-08-20T01:00:42.842Z,98828.03
2022-08-20T01:03:11.420Z,98817.13
2022-08-20T01:05:40.833Z,98825.06
2022-08-20T01:08:07.847Z,98820.56
2022-08-20T01:10:38.786Z,98825.03
2022-08-20T01:13:14.549Z,98822.84
2022-08-20T01:15:44.213Z,98818.19
2022-08-20T01:18:14.645Z,98817.56
2022-08-20T01:20:46.537Z,98805.66
2022-08-20T01:23:35.349Z,98804.75
2022-08-20T01:26:06.054Z,98811.22
2022-08-20T01:28:46.633Z,98818.84
2022-08-20T01:31:20.502Z,98814.50
2022-08-20T01:33:48.745Z,98817.50
2022-08-20T01:36:17.305Z,98808.53
2022-08-20T01:38:54.210Z,98809.13
2022-08-20T01:41:49.601Z,98803.91
2022-08-20T01:44:16.984Z,98803.25
2022-08-20T01:46:48.129Z,98811.75
2022-08-20T01:49:23.439Z,98820.16
2022-08-20T01:51:52.053Z,98817.75
2022-08-20T01:54:19.107Z,98819.81
2022-08-20T01:57:04.789Z,98820.06
2022-08-20T01:59:31.270Z,98816.50
2022-08-20T02:01:59.489Z,98816.22
2022-08-20T02:04:27.094Z,98813.94
2022-08-20T02:06:58.314Z,98820.44
2022-08-20T02:09:31.745Z,98818.22
2022-08-20T02:11:59.117Z,98816.56
2022-08-20T02:14:27.225Z,98807.00
2022-08-20T02:16:54.894Z,98802.59
2022-08-20T02:19:29.897Z,98801.56
2022-08-20T02:22:00.037Z,98805.09
2022-08-20T02:24:26.825Z,98807.00
2022-08-20T02:26:53.486Z,98800.31
2022-08-20T02:29:20.030Z,98800.91
2022-08-20T02:32:31.162Z,98798.66
2022-08-20T02:34:36.375Z,98793.03
2022-08-20T02:37:05.370Z,98796.13
2022-08-20T02:39:32.407Z,98796.63
2022-08-20T02:41:58.962Z,98787.84
2022-08-20T02:44:25.560Z,98785.34
2022-08-20T02:46:52.112Z,98789.78
2022-08-20T02:49:19.181Z,98782.81
2022-08-20T02:51:46.141Z,98777.66
2022-08-20T02:54:13.407Z,98769.63
2022-08-20T02:56:40.601Z,98773.63
2022-08-20T02:59:07.987Z,98764.44
2022-08-20T03:01:37.758Z,98765.09
2022-08-20T03:04:05.111Z,98755.63
2022-08-20T03:06:31.896Z,98761.25
2022-08-20T03:08:58.510Z,98750.59
2022-08-20T03:11:25.270Z,98744.78
2022-08-20T03:13:52.572Z,98739.94
2022-08-20T03:16:19.394Z,98735.34
2022-08-20T03:18:47.393Z,98735.34
2022-08-20T03:21:18.611Z,98735.13
2022-08-20T03:23:45.166Z,98739.94
2022-08-20T03:26:12.943Z,98730.75
2022-08-20T03:28:40.382Z,98731.81
2022-08-20T03:31:07.509Z,98738.28
2022-08-20T03:33:34.184Z,98742.22
2022-08-20T03:36:00.701Z,98748.78
2022-08-20T03:38:29.257Z,98742.47
2022-08-20T03:41:00.853Z,98737.66
2022-08-20T03:43:27.537Z,98747.91
2022-08-20T03:45:54.411Z,98737.00
2022-08-20T03:48:21.739Z,98746.84
2022-08-20T03:50:50.758Z,98743.84
2022-08-20T03:53:17.929Z,98749.38
2022-08-20T03:55:53.706Z,98751.28
2022-08-20T03:58:21.853Z,98750.63
2022-08-20T04:01:01.438Z,98754.00
2022-08-20T04:03:28.721Z,98758.63
2022-08-20T04:05:55.256Z,98761.34
2022-08-20T04:08:27.269Z,98754.47
2022-08-20T04:10:57.542Z,98758.22
2022-08-20T04:13:24.916Z,98750.06
2022-08-20T04:15:55.133Z,98750.25
2022-08-20T04:18:24.269Z,98757.84
2022-08-20T04:20:51.678Z,98752.78
2022-08-20T04:23:18.974Z,98748.41
2022-08-20T04:25:46.356Z,98752.19
2022-08-20T04:28:17.185Z,98746.47
2022-08-20T04:30:47.532Z,98754.47
2022-08-20T04:33:21.860Z,98753.22
2022-08-20T04:36:02.641Z,98744.19
2022-08-20T04:38:48.233Z,98749.47
2022-08-20T04:41:21.040Z,98747.94
2022-08-20T04:43:50.272Z,98756.75
2022-08-20T04:46:17.021Z,98757.38
2022-08-20T04:48:48.537Z,98756.13
2022-08-20T04:51:16.797Z,98754.88
2022-08-20T04:53:43.425Z,98764.91
2022-08-20T04:56:10.049Z,98768.03
2022-08-20T04:58:39.546Z,98772.66
2022-08-20T05:01:09.978Z,98772.28
2022-08-20T05:03:38.695Z,98768.69
2022-08-20T05:06:08.046Z,98771.66
2022-08-20T05:08:36.158Z,98771.63
2022-08-20T05:11:25.795Z,98766.63
2022-08-20T05:13:50.352Z,98764.75
2022-08-20T05:16:18.062Z,98762.22
2022-08-20T05:18:45.651Z,98763.88
2022-08-20T05:21:18.810Z,98762.91
2022-08-20T05:23:45.318Z,98763.09
2022-08-20T05:26:11.841Z,98764.75
2022-08-20T05:28:51.206Z,98758.28
2022-08-20T05:31:32.261Z,98762.44
2022-08-20T05:34:12.236Z,98763.91
2022-08-20T05:36:42.143Z,98761.19
2022-08-20T05:39:10.107Z,98762.00
2022-08-20T05:41:38.423Z,98770.81
2022-08-20T05:44:05.597Z,98765.81
2022-08-20T05:46:32.509Z,98769.94
2022-08-20T05:49:01.946Z,98769.09
2022-08-20T05:51:30.113Z,98774.13
2022-08-20T05:53:58.319Z,98770.38
2022-08-20T05:56:27.294Z,98774.31
2022-08-20T05:58:54.305Z,98772.66
2022-08-20T06:01:21.810Z,98780.81
2022-08-20T06:04:07.463Z,98783.13
2022-08-20T06:06:46.140Z,98783.78
2022-08-20T06:09:30.851Z,98790.09
2022-08-20T06:11:59.847Z,98785.66
2022-08-20T06:14:26.648Z,98789.22
2022-08-20T06:16:58.032Z,98794.44
2022-08-20T06:19:26.869Z,98799.47
2022-08-20T06:21:54.115Z,98795.69
2022-08-20T06:24:21.426Z,98801.56
2022-08-20T06:26:48.140Z,98794.22
2022-08-20T06:29:15.864Z,98805.75
2022-08-20T06:31:42.420Z,98794.25
2022-08-20T06:34:08.956Z,98801.75
2022-08-20T06:36:35.488Z,98800.72
2022-08-20T06:39:02.040Z,98810.94
2022-08-20T06:41:36.152Z,98818.09
2022-08-20T06:44:03.698Z,98818.47
2022-08-20T06:46:30.134Z,98822.84
2022-08-20T06:48:56.824Z,98824.75
2022-08-20T06:51:23.371Z,98825.38
2022-08-20T06:53:49.867Z,98824.50
2022-08-20T06:56:16.611Z,98827.25
2022-08-20T06:58:43.939Z,98818.47
2022-08-20T07:01:12.034Z,98830.19
2022-08-20T07:03:55.012Z,98830.59
2022-08-20T07:06:25.554Z,98829.97
2022-08-20T07:08:53.774Z,98825.13
2022-08-20T07:11:26.499Z,98825.75
2022-08-20T07:13:54.404Z,98826.09
2022-08-20T07:16:20.922Z,98830.72
2022-08-20T07:18:47.420Z,98824.88
2022-08-20T07:21:13.925Z,98830.16
2022-08-20T07:23:42.195Z,98832.06
2022-08-20T07:26:08.755Z,98840.22
2022-08-20T07:28:35.331Z,98842.38
2022-08-20T07:31:20.443Z,98850.34
2022-08-20T07:33:47.612Z,98856.44
2022-08-20T07:36:17.871Z,98859.16
2022-08-20T07:38:46.962Z,98868.63
2022-08-20T07:41:14.781Z,98862.72
2022-08-20T07:43:45.203Z,98858.06
2022-08-20T07:46:13.957Z,98866.06
2022-08-20T07:48:46.259Z,98856.19
2022-08-20T07:51:17.112Z,98861.00
2022-08-20T07:53:45.268Z,98854.06
2022-08-20T07:56:15.278Z,98859.91
2022-08-20T07:58:49.664Z,98867.00
2022-08-20T08:01:22.695Z,98871.22
2022-08-20T08:03:50.749Z,98871.19
2022-08-20T08:06:29.967Z,98873.44
2022-08-20T08:09:13.271Z,98872.63
2022-08-20T08:11:47.193Z,98877.03
2022-08-20T08:14:16.010Z,98880.81
2022-08-20T08:16:45.663Z,98878.47
2022-08-20T08:19:15.695Z,98886.25
2022-08-20T08:21:44.218Z,98892.94
2022-08-20T08:24:12.814Z,98888.31
2022-08-20T08:26:42.048Z,98895.00
2022-08-20T08:29:08.750Z,98902.16
2022-08-20T08:31:35.385Z,98903.00
2022-08-20T08:34:02.048Z,98911.59
2022-08-20T08:36:28.735Z,98907.41
2022-08-20T08:38:56.767Z,98918.50
2022-08-20T08:41:35.185Z,98914.31
2022-08-20T08:44:23.756Z,98916.41
2022-08-20T08:47:00.990Z,98923.34
2022-08-20T08:49:37.368Z,98925.41
2022-08-20T08:52:23.551Z,98932.31
2022-08-20T08:54:55.289Z,98921.44
2022-08-20T08:57:21.921Z,98920.56
2022-08-20T09:00:03.626Z,98925.78
2022-08-20T09:02:34.132Z,98922.22
2022-08-20T09:05:12.179Z,98923.91
2022-08-20T09:07:39.844Z,98919.50
2022-08-20T09:10:08.014Z,98918.03
2022-08-20T09:12:34.559Z,98924.75
2022-08-20T09:15:01.804Z,98932.75
2022-08-20T09:17:28.324Z,98936.34
2022-08-20T09:19:54.901Z,98935.94
2022-08-20T09:22:25.981Z,98924.19
2022-08-20T09:24:53.253Z,98923.97
2022-08-20T09:27:20.088Z,98924.19
2022-08-20T09:29:49.308Z,98918.97
2022-08-20T09:32:22.548Z,98915.56
2022-08-20T09:37:18.577Z,98918.75
2022-08-20T09:39:45.069Z,98917.06
2022-08-20T09:42:18.476Z,98913.94
2022-08-20T09:44:45.854Z,98917.28
2022-08-20T09:47:12.781Z,98915.16
2022-08-20T09:49:39.615Z,98916.22
2022-08-20T09:52:08.339Z,98918.31
2022-08-20T09:54:36.817Z,98922.69
2022-08-20T09:57:06.940Z,98926.47
2022-08-20T09:59:35.381Z,98931.50
2022-08-20T10:02:02.353Z,98925.63
2022-08-20T10:04:29.036Z,98927.50
2022-08-20T10:06:56.144Z,98927.97
2022-08-20T10:09:22.970Z,98940.78
2022-08-20T10:11:49.538Z,98929.00
2022-08-20T10:14:16.037Z,98935.28
2022-08-20T10:16:42.706Z,98931.53
2022-08-20T10:19:09.252Z,98931.75
2022-08-20T10:21:38.835Z,98935.09
2022-08-20T10:24:06.540Z,98924.81
2022-08-20T10:26:33.054Z,98929.44
2022-08-20T10:28:59.542Z,98937.56
2022-08-20T10:31:26.041Z,98934.88
2022-08-20T10:33:52.485Z,98949.75
2022-08-20T10:36:19.141Z,98956.69
2022-08-20T10:38:45.861Z,98951.00
2022-08-20T10:41:12.634Z,98955.00
2022-08-20T10:43:39.154Z,98945.56
2022-08-20T10:46:06.114Z,98952.88
2022-08-20T10:48:32.991Z,98952.03
2022-08-20T10:50:59.710Z,98954.75
2022-08-20T10:53:26.571Z,98959.53
2022-08-20T10:55:54.878Z,98956.81
2022-08-20T10:58:23.808Z,98956.63
2022-08-20T11:00:51.155Z,98951.56
2022-08-20T11:03:17.786Z,98954.75
2022-08-20T11:05:44.406Z,98966.06
2022-08-20T11:08:10.941Z,98967.09
2022-08-20T11:10:38.461Z,98961.25
2022-08-20T11:13:07.069Z,98968.88
2022-08-20T11:15:37.146Z,98972.81
2022-08-20T11:18:04.145Z,98971.56
2022-08-20T11:20:32.038Z,98968.41
2022-08-20T11:22:58.775Z,98960.69
2022-08-20T11:25:26.332Z,98969.06
2022-08-20T11:27:54.484Z,98968.88
2022-08-20T11:30:26.036Z,98968.88
2022-08-20T11:32:52.553Z,98974.91
2022-08-20T11:38:08.293Z,98982.66
2022-08-20T11:40:34.811Z,98977.63
2022-08-20T11:43:17.866Z,98978.91
2022-08-20T11:45:51.156Z,98984.78
2022-08-20T11:48:18.388Z,98979.72
2022-08-20T11:50:45.796Z,98985.63
2022-08-20T11:53:12.368Z,98982.06
2022-08-20T11:55:39.373Z,98989.81
2022-08-20T11:58:06.979Z,98990.22
2022-08-20T12:00:34.427Z,98995.06
2022-08-20T12:03:04.960Z,99000.94
2022-08-20T12:05:32.441Z,99000.94
2022-08-20T12:08:01.221Z,98989.63
2022-08-20T12:10:28.558Z,98985.00
2022-08-20T12:12:56.326Z,98985.00
2022-08-20T12:15:23.826Z,98992.94
2022-08-20T12:17:50.326Z,98990.22
2022-08-20T12:20:17.051Z,98988.13
2022-08-20T12:22:44.700Z,98986.66
2022-08-20T12:25:12.344Z,98993.41
2022-08-20T12:27:39.545Z,98998.63
2022-08-20T12:30:10.374Z,98994.63
2022-08-20T12:32:37.322Z,98997.34
2022-08-20T12:35:05.937Z,99003.03
2022-08-20T12:37:32.964Z,99000.91
2022-08-20T12:40:01.633Z,98994.00
2022-08-20T12:42:30.563Z,98995.25
2022-08-20T12:44:58.740Z,98996.50
2022-08-20T12:47:28.418Z,99003.47
2022-08-20T12:50:04.651Z,99010.78
2022-08-20T12:52:32.181Z,99012.25
2022-08-20T12:54:59.522Z,99010.16
2022-08-20T12:57:32.429Z,99008.28
2022-08-20T13:00:04.959Z,99002.41
2022-08-20T13:02:31.823Z,98998.22
2022-08-20T13:05:03.976Z,98995.28
2022-08-20T13:07:31.883Z,99006.38
2022-08-20T13:09:59.278Z,98999.47
2022-08-20T13:12:25.821Z,98994.03
2022-08-20T13:14:52.328Z,98989.63
2022-08-20T13:17:19.326Z,98990.63
2022-08-20T13:19:50.833Z,98998.03
2022-08-20T13:22:17.745Z,99003.63
2022-08-20T13:24:44.324Z,99000.72
2022-08-20T13:27:12.258Z,99014.34
2022-08-20T13:29:39.028Z,99004.88
2022-08-20T13:32:10.270Z,99008.06
2022-08-20T13:34:42.882Z,99003.63
2022-08-20T13:37:27.299Z,99001.09
2022-08-20T13:39:56.534Z,99007.38
2022-08-20T13:42:23.144Z,99010.94
2022-08-20T13:44:49.944Z,99023.38
2022-08-20T13:47:29.870Z,99027.56
2022-08-20T13:50:03.463Z,99028.38
2022-08-20T13:52:30.099Z,99022.31
2022-08-20T13:54:57.419Z,99025.47
2022-08-20T13:57:25.485Z,99033.00
2022-08-20T13:59:56.617Z,99029.25
2022-08-20T14:02:23.992Z,99027.56
2022-08-20T14:04:51.968Z,99026.94
2022-08-20T14:07:22.013Z,99021.91
2022-08-20T14:09:51.035Z,99027.16
2022-08-20T14:12:17.933Z,99033.47
2022-08-20T14:14:44.636Z,99033.88
2022-08-20T14:17:25.239Z,99026.78
2022-08-20T14:19:54.454Z,99028.88
2022-08-20T14:22:24.016Z,99028.84
2022-08-20T14:24:50.809Z,99022.56
2022-08-20T14:27:20.563Z,99033.69
2022-08-20T14:29:49.388Z,99030.75
2022-08-20T14:32:16.650Z,99034.31
2022-08-20T14:34:43.552Z,99033.91
2022-08-20T14:37:25.059Z,99032.03
2022-08-20T14:39:54.313Z,99031.59
2022-08-20T14:42:22.967Z,99032.22
2022-08-20T14:44:50.921Z,99032.66
2022-08-20T14:47:21.123Z,99040.19
2022-08-20T14:49:50.232Z,99049.63
2022-08-20T14:52:18.433Z,99045.22
2022-08-20T14:54:46.000Z,99041.44
2022-08-20T14:57:15.396Z,99041.00
2022-08-20T14:59:42.536Z,99029.72
2022-08-20T15:02:10.927Z,99034.94
2022-08-20T15:04:38.301Z,99027.00
2022-08-20T15:07:23.020Z,99032.25
2022-08-20T15:09:49.523Z,99028.25
2022-08-20T15:12:16.129Z,99028.03
2022-08-20T15:14:42.660Z,99027.84
2022-08-20T15:17:12.768Z,99018.00
2022-08-20T15:19:40.396Z,99021.75
2022-08-20T15:22:07.709Z,99024.88
2022-08-20T15:24:34.603Z,99016.53
2022-08-20T15:27:13.052Z,99021.56
2022-08-20T15:29:40.806Z,99016.53
2022-08-20T15:32:08.764Z,99024.69
2022-08-20T15:34:37.279Z,99017.56
2022-08-20T15:37:16.026Z,99007.06
2022-08-20T15:39:46.164Z,99021.75
2022-08-20T15:42:13.998Z,99015.88
2022-08-20T15:44:42.803Z,99021.94
2022-08-20T15:47:31.153Z,99026.75
2022-08-20T15:50:09.276Z,99020.47
2022-08-20T15:52:44.180Z,99017.13
2022-08-20T15:55:16.409Z,99021.28
2022-08-20T15:58:09.369Z,99018.97
2022-08-20T16:01:24.935Z,99031.75
2022-08-20T16:04:10.682Z,99040.34
2022-08-20T16:06:38.725Z,99043.47
2022-08-20T16:09:06.216Z,99040.56
2022-08-20T16:11:39.660Z,99041.41
2022-08-20T16:14:26.858Z,99035.97
2022-08-20T16:17:03.967Z,99037.41
2022-08-20T16:19:45.484Z,99036.38
2022-08-20T16:22:17.222Z,99041.00
2022-08-20T16:24:46.100Z,99041.84
2022-08-20T16:27:36.504Z,99046.03
2022-08-20T16:30:14.675Z,99041.84
2022-08-20T16:32:55.067Z,99045.63
2022-08-20T16:35:33.692Z,99049.00
2022-08-20T16:38:13.521Z,99054.00
2022-08-20T16:41:00.851Z,99059.06
2022-08-20T16:43:56.406Z,99061.13
2022-08-20T16:46:28.908Z,99064.91
2022-08-20T16:48:58.336Z,99066.38
2022-08-20T16:51:40.838Z,99068.47
2022-08-20T16:54:08.615Z,99069.09
2022-08-20T16:56:39.908Z,99068.66
2022-08-20T16:59:24.580Z,99079.34
2022-08-20T17:02:11.121Z,99071.50
2022-08-20T17:04:50.441Z,99068.41
2022-08-20T17:07:43.191Z,99077.78
2022-08-20T17:10:18.275Z,99080.09
2022-08-20T17:12:45.012Z,99079.06
2022-08-20T17:15:23.611Z,99078.66
2022-08-20T17:17:50.203Z,99082.00
2022-08-20T17:20:20.093Z,99075.06
2022-08-20T17:22:51.222Z,99077.78
2022-08-20T17:25:31.866Z,99076.09
2022-08-20T17:28:00.471Z,99070.88
2022-08-20T17:30:36.758Z,99079.03
2022-08-20T17:33:07.190Z,99080.25
2022-08-20T17:35:43.150Z,99077.31
2022-08-20T17:38:27.471Z,99076.72
2022-08-20T17:41:00.322Z,99075.84
2022-08-20T17:43:30.984Z,99080.47
2022-08-20T17:45:59.460Z,99087.72
2022-08-20T17:48:41.376Z,99082.50
2022-08-20T17:51:18.770Z,99081.84
2022-08-20T17:53:57.388Z,99080.38
2022-08-20T17:56:39.888Z,99089.16
2022-08-20T17:59:12.726Z,99087.94
2022-08-20T18:01:50.727Z,99086.06
2022-08-20T18:04:17.362Z,99088.75
2022-08-20T18:07:02.346Z,99091.25
2022-08-20T18:09:49.102Z,99096.69
2022-08-20T18:12:35.039Z,99092.91
2022-08-20T18:15:15.356Z,99094.81
2022-08-20T18:18:14.843Z,99086.44
2022-08-20T18:21:22.057Z,99083.16
2022-08-20T18:23:54.575Z,99091.72
2022-08-20T18:26:29.456Z,99087.97
2022-08-20T18:29:27.550Z,99093.03
2022-08-20T18:31:59.076Z,99090.75
2022-08-20T18:34:28.600Z,99094.06
2022-08-20T18:36:59.887Z,99097.22
2022-08-20T18:39:33.549Z,99101.16
2022-08-20T18:42:09.928Z,99098.47
2022-08-20T18:44:45.319Z,99098.47
2022-08-20T18:47:29.967Z,99098.94
2022-08-20T18:50:25.727Z,99093.03
2022-08-20T18:53:09.497Z,99096.22
2022-08-20T18:55:43.635Z,99102.03
2022-08-20T18:58:14.943Z,99110.78
2022-08-20T19:00:43.085Z,99107.03
2022-08-20T19:03:18.687Z,99105.19
2022-08-20T19:05:45.295Z,99114.19
2022-08-20T19:08:25.399Z,99103.47
2022-08-20T19:11:20.597Z,99105.41
2022-08-20T19:13:56.432Z,99110.22
2022-08-20T19:16:39.375Z,99117.97
2022-08-20T19:19:15.345Z,99121.06
2022-08-20T19:21:42.835Z,99112.91
2022-08-20T19:24:13.723Z,99113.34
2022-08-20T19:26:44.849Z,99112.72
2022-08-20T19:29:16.175Z,99106.25
2022-08-20T19:31:43.262Z,99109.13
2022-08-20T19:34:22.734Z,99110.63
2022-08-20T19:37:35.123Z,99101.44
2022-08-20T19:40:02.174Z,99097.03
2022-08-20T19:42:36.376Z,99093.88
2022-08-20T19:45:07.621Z,99096.13
2022-08-20T19:47:46.153Z,99092.59
2022-08-20T19:50:32.217Z,99087.81
2022-08-20T19:53:19.049Z,99095.59
2022-08-20T19:55:59.431Z,99084.28
2022-08-20T19:58:27.477Z,99093.28
2022-08-20T20:00:56.236Z,99095.03
2022-08-20T20:03:32.174Z,99096.09
2022-08-20T20:06:17.263Z,99096.72
2022-08-20T20:08:59.105Z,99111.19
2022-08-20T20:11:34.951Z,99117.03
2022-08-20T20:14:08.407Z,99102.09
2022-08-20T20:16:36.227Z,99101.66
2022-08-20T20:19:25.714Z,99095.44
2022-08-20T20:22:20.251Z,99088.75
2022-08-20T20:24:56.717Z,99088.75
2022-08-20T20:27:26.141Z,99088.75
2022-08-20T20:30:02.014Z,99082.03
2022-08-20T20:32:30.520Z,99087.28
2022-08-20T20:35:03.258Z,99078.72
2022-08-20T20:37:49.002Z,99078.50
2022-08-20T20:40:27.728Z,99084.16
2022-08-20T20:46:40.320Z,99094.81
2022-08-20T20:49:13.080Z,99090.22
2022-08-20T20:51:46.746Z,99088.91
2022-08-20T20:54:35.308Z,99085.34
2022-08-20T20:57:05.942Z,99073.84
2022-08-20T20:59:34.571Z,99073.47
2022-08-20T21:02:02.434Z,99072.22
2022-08-20T21:04:29.309Z,99069.50
2022-08-20T21:06:57.846Z,99067.81
2022-08-20T21:09:30.440Z,99061.09
2022-08-20T21:12:23.989Z,99062.34
2022-08-20T21:15:03.492Z,99045.78
2022-08-20T21:17:41.534Z,99043.28
2022-08-20T21:20:41.985Z,99044.13
2022-08-20T21:23:40.384Z,99033.66
2022-08-20T21:26:20.509Z,99034.72
2022-08-20T21:28:47.385Z,99036.59
2022-08-20T21:31:27.668Z,99027.81
2022-08-20T21:34:16.582Z,99033.50
2022-08-20T21:36:43.829Z,99027.81
2022-08-20T21:39:11.067Z,99024.47
2022-08-20T21:41:38.425Z,99021.75
2022-08-20T21:44:12.111Z,99017.56
2022-08-20T21:46:38.857Z,99024.25
2022-08-20T21:49:05.539Z,99033.50
2022-08-20T21:51:32.496Z,99024.25
2022-08-20T21:53:59.656Z,99019.66
2022-08-20T21:56:26.216Z,99021.31
2022-08-20T21:58:53.147Z,99015.25
2022-08-20T22:01:22.630Z,99016.31
2022-08-20T22:03:50.505Z,99021.16
2022-08-20T22:06:19.413Z,99029.31
2022-08-20T22:08:45.880Z,99019.22
2022-08-20T22:11:13.727Z,99021.31
2022-08-20T22:13:41.537Z,99019.66
2022-08-20T22:16:09.779Z,99023.00
2022-08-20T22:18:37.162Z,99025.91
2022-08-20T22:21:07.633Z,99020.09
2022-08-20T22:23:34.290Z,99020.09
2022-08-20T22:26:00.841Z,99027.81
2022-08-20T22:28:27.388Z,99029.88
2022-08-20T22:30:53.948Z,99029.50
2022-08-20T22:33:22.949Z,99030.50
2022-08-20T22:35:53.182Z,99036.78
2022-08-20T22:38:20.171Z,99032.84
2022-08-20T22:40:47.340Z,99032.41
2022-08-20T22:43:15.128Z,99035.56
2022-08-20T22:45:45.436Z,99034.50
2022-08-20T22:48:15.520Z,99036.44
2022-08-20T22:50:42.213Z,99030.94
2022-08-20T22:53:09.109Z,99027.81
2022-08-20T22:55:35.780Z,99036.81
2022-08-20T22:58:02.671Z,99033.88
2022-08-20T23:00:32.478Z,99036.56
2022-08-20T23:03:01.094Z,99040.56
2022-08-20T23:05:30.302Z,99046.44
2022-08-20T23:07:58.599Z,99037.66
2022-08-20T23:10:27.245Z,99041.00
2022-08-20T23:12:54.012Z,99047.69
2022-08-20T23:15:20.906Z,99054.44
2022-08-20T23:17:47.498Z,99049.75
2022-08-20T23:20:17.805Z,99038.88
2022-08-20T23:22:44.602Z,99039.31
2022-08-20T23:25:12.726Z,99042.06
2022-08-20T23:27:46.592Z,99037.44
2022-08-20T23:30:15.290Z,99034.28
2022-08-20T23:32:41.835Z,99020.47
2022-08-20T23:35:10.046Z,99021.94
2022-08-20T23:37:42.053Z,99024.06
2022-08-20T23:40:09.495Z,99029.72
2022-08-20T23:42:36.216Z,99031.59
2022-08-20T23:45:04.188Z,99027.38
2022-08-20T23:47:32.538Z,99024.25
2022-08-20T23:49:59.215Z,99029.09
2022-08-20T23:52:25.961Z,99030.53
2022-08-20T23:54:52.481Z,99033.69
2022-08-20T23:57:21.148Z,99028.66
2022-08-20T23:59:48.414Z,99024.47
